createdAt,value
2023-03-12T00:02:21.288Z,101285.34
2023-03-12T00:04:50.293Z,101291.44
2023-03-12T00:07:16.826Z,101280.22
2023-03-12T00:09:44.384Z,101281.97
2023-03-12T00:12:10.727Z,101270.00
2023-03-12T00:14:42.009Z,101275.88
2023-03-12T00:17:08.532Z,101269.53
2023-03-12T00:19:34.935Z,101274.22
2023-03-12T00:22:01.356Z,101270.00
2023-03-12T00:24:29.044Z,101278.06
2023-03-12T00:26:56.523Z,101268.03
2023-03-12T00:29:22.857Z,101256.34
2023-03-12T00:31:49.315Z,101242.03
2023-03-12T00:34:20.606Z,101250.50
2023-03-12T00:36:51.763Z,101246.31
2023-03-12T00:39:18.131Z,101253.69
2023-03-12T00:41:44.499Z,101264.19
2023-03-12T00:44:19.035Z,101254.13
2023-03-12T00:46:48.554Z,101261.69
2023-03-12T00:49:14.998Z,101257.66
2023-03-12T00:51:41.389Z,101257.97
2023-03-12T00:54:18.101Z,101260.84
2023-03-12T00:56:44.535Z,101260.00
2023-03-12T00:59:11.138Z,101262.94
2023-03-12T01:01:39.793Z,101242.94
2023-03-12T01:04:06.325Z,101251.66
2023-03-12T01:06:32.818Z,101234.31
2023-03-12T01:09:01.920Z,101243.00
2023-03-12T01:11:28.731Z,101232.88
2023-03-12T01:13:55.081Z,101224.69
2023-03-12T01:16:21.636Z,101218.50
2023-03-12T01:18:48.046Z,101203.13
2023-03-12T01:21:17.152Z,101208.13
2023-03-12T01:23:43.542Z,101217.75
2023-03-12T01:26:10.622Z,101217.41
2023-03-12T01:28:37.115Z,101216.50
2023-03-12T01:31:12.294Z,101218.59
2023-03-12T01:33:42.281Z,101229.09
2023-03-12T01:36:24.622Z,101225.06
2023-03-12T01:38:53.033Z,101218.78
2023-03-12T01:41:23.693Z,101220.44
2023-03-12T01:43:52.827Z,101214.03
2023-03-12T01:46:31.598Z,101214.91
2023-03-12T01:49:26.938Z,101210.44
2023-03-12T01:52:24.492Z,101217.06
2023-03-12T01:54:58.110Z,101209.59
2023-03-12T01:57:46.293Z,101199.91
2023-03-12T02:00:17.483Z,101198.13
2023-03-12T02:02:46.029Z,101194.56
2023-03-12T02:05:55.841Z,101192.16
2023-03-12T02:08:23.835Z,101187.53
2023-03-12T02:10:50.829Z,101182.97
2023-03-12T02:13:18.563Z,101165.19
2023-03-12T02:15:46.104Z,101171.50
2023-03-12T02:18:17.791Z,101166.84
2023-03-12T02:21:10.773Z,101172.63
2023-03-12T02:23:55.577Z,101163.69
2023-03-12T02:26:26.416Z,101164.97
2023-03-12T02:28:53.008Z,101158.66
2023-03-12T02:31:34.876Z,101148.00
2023-03-12T02:34:01.494Z,101150.94
2023-03-12T02:36:30.233Z,101138.50
2023-03-12T02:38:56.725Z,101128.59
2023-03-12T02:41:34.104Z,101131.97
2023-03-12T02:44:13.009Z,101144.22
2023-03-12T02:46:49.006Z,101123.44
2023-03-12T02:49:17.254Z,101129.38
2023-03-12T02:51:45.702Z,101126.63
2023-03-12T02:54:14.029Z,101123.06
2023-03-12T02:56:41.422Z,101121.53
2023-03-12T02:59:16.857Z,101113.06
2023-03-12T03:01:44.126Z,101098.09
2023-03-12T03:04:17.201Z,101104.28
2023-03-12T03:06:44.270Z,101097.91
2023-03-12T03:09:13.142Z,101093.50
2023-03-12T03:11:39.683Z,101092.66
2023-03-12T03:14:06.170Z,101096.25
2023-03-12T03:16:34.877Z,101090.78
2023-03-12T03:19:01.434Z,101098.69
2023-03-12T03:21:27.920Z,101086.03
2023-03-12T03:23:54.480Z,101083.94
2023-03-12T03:26:22.329Z,101078.59
2023-03-12T03:28:50.981Z,101073.06
2023-03-12T03:31:18.200Z,101069.97
2023-03-12T03:33:47.779Z,101068.94
2023-03-12T03:36:14.314Z,101057.75
2023-03-12T03:38:41.886Z,101051.19
2023-03-12T03:41:15.508Z,101058.25
2023-03-12T03:43:42.117Z,101052.81
2023-03-12T03:46:14.467Z,101032.66
2023-03-12T03:48:41.715Z,101033.41
2023-03-12T03:51:09.585Z,101035.06
2023-03-12T03:53:36.083Z,101036.09
2023-03-12T03:56:09.372Z,101033.31
2023-03-12T03:58:38.398Z,101028.84
2023-03-12T04:01:05.130Z,101025.81
2023-03-12T04:03:32.047Z,101032.88
2023-03-12T04:06:04.585Z,101036.41
2023-03-12T04:08:33.527Z,101032.28
2023-03-12T04:11:00.103Z,101034.00
2023-03-12T04:13:28.674Z,101036.09
2023-03-12T04:15:55.525Z,101025.78
2023-03-12T04:18:26.309Z,101033.59
2023-03-12T04:20:54.148Z,101026.56
2023-03-12T04:23:20.514Z,101023.78
2023-03-12T04:25:48.697Z,101016.88
2023-03-12T04:28:15.104Z,101012.59
2023-03-12T04:30:43.731Z,101008.19
2023-03-12T04:33:10.357Z,101012.41
2023-03-12T04:35:39.742Z,101009.06
2023-03-12T04:38:06.330Z,101020.34
2023-03-12T04:40:32.781Z,101010.69
2023-03-12T04:43:00.362Z,101006.09
2023-03-12T04:45:35.171Z,100996.72
2023-03-12T04:48:03.794Z,100996.72
2023-03-12T04:50:30.230Z,100983.47
2023-03-12T04:52:56.757Z,100974.88
2023-03-12T04:55:23.247Z,100972.47
2023-03-12T04:57:52.553Z,100958.34
2023-03-12T05:00:21.929Z,100944.84
2023-03-12T05:02:48.418Z,100952.53
2023-03-12T05:05:14.838Z,100939.25
2023-03-12T05:07:47.769Z,100921.69
2023-03-12T05:10:14.238Z,100910.22
2023-03-12T05:12:40.782Z,100904.50
2023-03-12T05:15:07.922Z,100924.38
2023-03-12T05:17:36.958Z,100930.97
2023-03-12T05:20:04.031Z,100920.56
2023-03-12T05:22:30.494Z,100918.47
2023-03-12T05:24:57.018Z,100923.53
2023-03-12T05:27:23.430Z,100917.25
2023-03-12T05:29:49.978Z,100921.63
2023-03-12T05:32:16.465Z,100921.63
2023-03-12T05:34:42.832Z,100922.50
2023-03-12T05:37:09.399Z,100909.94
2023-03-12T05:39:35.881Z,100911.81
2023-03-12T05:42:04.016Z,100909.94
2023-03-12T05:44:33.202Z,100911.53
2023-03-12T05:47:02.206Z,100901.13
2023-03-12T05:49:32.934Z,100910.78
2023-03-12T05:54:40.851Z,100909.28
2023-03-12T05:57:07.874Z,100898.78
2023-03-12T05:59:35.440Z,100904.13
2023-03-12T06:02:01.918Z,100898.09
2023-03-12T06:04:33.508Z,100905.16
2023-03-12T06:07:02.946Z,100894.09
2023-03-12T06:09:29.262Z,100902.50
2023-03-12T06:11:55.687Z,100903.31
2023-03-12T06:14:22.162Z,100908.78
2023-03-12T06:16:48.553Z,100908.09
2023-03-12T06:19:21.809Z,100903.72
2023-03-12T06:21:52.136Z,100906.19
2023-03-12T06:24:18.898Z,100894.63
2023-03-12T06:26:45.291Z,100906.88
2023-03-12T06:29:12.068Z,100903.72
2023-03-12T06:31:44.749Z,100908.78
2023-03-12T06:34:11.224Z,100904.66
2023-03-12T06:36:38.054Z,100897.03
2023-03-12T06:39:04.558Z,100889.09
2023-03-12T06:41:33.640Z,100890.91
2023-03-12T06:44:02.311Z,100886.63
2023-03-12T06:46:31.177Z,100879.44
2023-03-12T06:48:57.767Z,100879.53
2023-03-12T06:54:13.722Z,100878.78
2023-03-12T06:56:40.195Z,100881.19
2023-03-12T06:59:06.787Z,100863.63
2023-03-12T07:01:38.420Z,100855.50
2023-03-12T07:04:04.891Z,100861.63
2023-03-12T07:06:33.891Z,100845.31
2023-03-12T07:09:00.360Z,100847.31
2023-03-12T07:11:29.150Z,100844.81
2023-03-12T07:13:55.564Z,100844.72
2023-03-12T07:16:21.964Z,100844.56
2023-03-12T07:18:48.436Z,100828.53
2023-03-12T07:21:15.652Z,100823.94
2023-03-12T07:23:42.212Z,100836.16
2023-03-12T07:26:10.556Z,100847.63
2023-03-12T07:28:37.119Z,100841.50
2023-03-12T07:31:04.315Z,100844.84
2023-03-12T07:33:31.102Z,100843.72
2023-03-12T07:35:58.226Z,100845.44
2023-03-12T07:38:27.349Z,100824.06
2023-03-12T07:40:55.237Z,100842.47
2023-03-12T07:43:22.659Z,100848.38
2023-03-12T07:45:49.680Z,100863.94
2023-03-12T07:48:19.026Z,100863.06
2023-03-12T07:50:48.840Z,100853.06
2023-03-12T07:53:16.247Z,100860.88
2023-03-12T07:55:46.178Z,100864.22
2023-03-12T07:58:12.930Z,100864.22
2023-03-12T08:00:44.890Z,100861.44
2023-03-12T08:03:12.155Z,100879.78
2023-03-12T08:05:39.386Z,100874.34
2023-03-12T08:08:10.585Z,100868.69
2023-03-12T08:10:37.701Z,100861.75
2023-03-12T08:13:04.310Z,100864.00
2023-03-12T08:15:33.292Z,100850.63
2023-03-12T08:17:59.678Z,100847.59
2023-03-12T08:20:26.173Z,100847.50
2023-03-12T08:22:59.464Z,100843.47
2023-03-12T08:25:25.965Z,100849.75
2023-03-12T08:27:55.751Z,100851.19
2023-03-12T08:30:22.274Z,100853.44
2023-03-12T08:32:48.767Z,100845.25
2023-03-12T08:35:15.347Z,100860.78
2023-03-12T08:37:41.752Z,100856.53
2023-03-12T08:40:12.949Z,100857.41
2023-03-12T08:42:44.309Z,100855.38
2023-03-12T08:45:18.024Z,100840.94
2023-03-12T08:47:44.462Z,100855.84
2023-03-12T08:50:13.448Z,100858.56
2023-03-12T08:52:41.283Z,100847.84
2023-03-12T08:55:11.651Z,100851.31
2023-03-12T08:57:39.772Z,100862.69
2023-03-12T09:00:08.067Z,100867.63
2023-03-12T09:02:35.994Z,100866.66
2023-03-12T09:05:02.398Z,100867.31
2023-03-12T09:07:32.417Z,100873.13
2023-03-12T09:09:58.811Z,100869.06
2023-03-12T09:12:25.646Z,100861.25
2023-03-12T09:15:03.442Z,100866.19
2023-03-12T09:17:31.360Z,100856.47
2023-03-12T09:20:03.458Z,100844.53
2023-03-12T09:22:30.660Z,100845.28
2023-03-12T09:24:57.586Z,100836.56
2023-03-12T09:27:28.222Z,100838.25
2023-03-12T09:30:00.456Z,100838.59
2023-03-12T09:32:31.097Z,100822.16
2023-03-12T09:35:08.649Z,100823.06
2023-03-12T09:37:35.361Z,100833.19
2023-03-12T09:40:05.899Z,100831.84
2023-03-12T09:42:40.643Z,100843.28
2023-03-12T09:45:13.498Z,100837.47
2023-03-12T09:47:51.288Z,100848.25
2023-03-12T09:50:33.569Z,100847.75
2023-03-12T09:53:14.677Z,100848.97
2023-03-12T09:55:47.480Z,100854.09
2023-03-12T09:58:24.940Z,100850.44
2023-03-12T10:01:00.950Z,100852.16
2023-03-12T10:03:44.338Z,100858.31
2023-03-12T10:06:16.942Z,100858.53
2023-03-12T10:09:20.147Z,100866.00
2023-03-12T10:12:05.981Z,100858.00
2023-03-12T10:14:55.567Z,100863.75
2023-03-12T10:18:02.948Z,100854.75
2023-03-12T10:20:48.145Z,100866.00
2023-03-12T10:23:32.892Z,100857.56
2023-03-12T10:26:10.471Z,100856.69
2023-03-12T10:28:39.607Z,100847.69
2023-03-12T10:31:21.592Z,100854.53
2023-03-12T10:33:55.808Z,100855.28
2023-03-12T10:36:43.100Z,100844.53
2023-03-12T10:39:18.662Z,100849.06
2023-03-12T10:41:47.286Z,100858.47
2023-03-12T10:44:21.639Z,100854.72
2023-03-12T10:47:18.846Z,100849.66
2023-03-12T10:49:45.304Z,100843.25
2023-03-12T10:52:20.257Z,100841.78
2023-03-12T10:54:57.853Z,100836.97
2023-03-12T10:57:40.934Z,100837.94
2023-03-12T11:00:17.707Z,100854.78
2023-03-12T11:02:55.026Z,100848.25
2023-03-12T11:05:38.090Z,100839.34
2023-03-12T11:08:20.800Z,100844.47
2023-03-12T11:10:48.211Z,100846.50
2023-03-12T11:13:50.154Z,100842.22
2023-03-12T11:16:16.664Z,100835.19
2023-03-12T11:19:05.940Z,100850.31
2023-03-12T11:21:37.671Z,100865.72
2023-03-12T11:24:16.876Z,100870.97
2023-03-12T11:27:12.412Z,100859.44
2023-03-12T11:29:43.169Z,100860.63
2023-03-12T11:32:24.019Z,100878.69
2023-03-12T11:34:50.902Z,100865.53
2023-03-12T11:37:50.249Z,100858.06
2023-03-12T11:40:44.713Z,100861.34
2023-03-12T11:43:36.017Z,100867.78
2023-03-12T11:46:23.741Z,100856.38
2023-03-12T11:49:36.144Z,100851.72
2023-03-12T11:52:05.589Z,100866.19
2023-03-12T11:54:50.525Z,100855.38
2023-03-12T11:57:41.983Z,100849.44
2023-03-12T12:00:14.156Z,100841.34
2023-03-12T12:02:43.309Z,100835.25
2023-03-12T12:05:48.200Z,100825.63
2023-03-12T12:08:23.726Z,100830.63
2023-03-12T12:11:11.057Z,100833.06
2023-03-12T12:13:40.715Z,100832.34
2023-03-12T12:16:47.695Z,100820.38
2023-03-12T12:19:45.074Z,100827.22
2023-03-12T12:22:44.444Z,100831.53
2023-03-12T12:25:35.847Z,100830.28
2023-03-12T12:28:23.620Z,100820.44
2023-03-12T12:31:23.374Z,100822.91
2023-03-12T12:33:55.337Z,100815.03
2023-03-12T12:36:25.658Z,100808.41
2023-03-12T12:39:14.678Z,100803.69
2023-03-12T12:41:52.979Z,100808.25
2023-03-12T12:44:33.232Z,100827.47
2023-03-12T12:47:03.858Z,100819.66
2023-03-12T12:49:44.090Z,100828.16
2023-03-12T12:52:18.932Z,100832.41
2023-03-12T12:54:58.386Z,100810.94
2023-03-12T12:57:50.002Z,100799.16
2023-03-12T13:00:38.214Z,100798.28
2023-03-12T13:03:13.008Z,100805.13
2023-03-12T13:06:01.741Z,100788.38
2023-03-12T13:08:47.731Z,100792.09
2023-03-12T13:11:30.545Z,100781.97
2023-03-12T13:14:03.591Z,100775.53
2023-03-12T13:16:44.693Z,100782.34
2023-03-12T13:19:14.317Z,100773.38
2023-03-12T13:22:14.954Z,100779.50
2023-03-12T13:25:12.760Z,100783.50
2023-03-12T13:27:45.096Z,100786.50
2023-03-12T13:30:33.351Z,100779.81
2023-03-12T13:32:59.833Z,100787.22
2023-03-12T13:35:28.108Z,100777.97
2023-03-12T13:37:54.512Z,100775.53
2023-03-12T13:40:31.803Z,100789.75
2023-03-12T13:43:10.045Z,100784.06
2023-03-12T13:45:45.252Z,100773.06
2023-03-12T13:48:16.567Z,100795.59
2023-03-12T13:50:55.710Z,100799.50
2023-03-12T13:53:26.399Z,100805.38
2023-03-12T13:56:15.403Z,100795.19
2023-03-12T13:58:54.859Z,100799.91
2023-03-12T14:01:24.861Z,100795.53
2023-03-12T14:03:57.127Z,100790.84
2023-03-12T14:06:31.102Z,100785.41
2023-03-12T14:08:57.887Z,100789.72
2023-03-12T14:11:27.008Z,100791.84
2023-03-12T14:13:59.365Z,100781.97
2023-03-12T14:16:38.162Z,100802.25
2023-03-12T14:19:05.270Z,100798.56
2023-03-12T14:21:39.973Z,100793.47
2023-03-12T14:24:08.420Z,100812.22
2023-03-12T14:26:40.299Z,100814.19
2023-03-12T14:29:29.219Z,100815.38
2023-03-12T14:32:01.971Z,100831.03
2023-03-12T14:34:38.493Z,100825.34
2023-03-12T14:37:33.595Z,100844.34
2023-03-12T14:40:21.998Z,100838.28
2023-03-12T14:42:48.610Z,100826.19
2023-03-12T14:45:20.144Z,100828.03
2023-03-12T14:47:57.779Z,100827.09
2023-03-12T14:50:26.575Z,100838.88
2023-03-12T14:52:53.575Z,100837.66
2023-03-12T14:55:24.454Z,100833.28
2023-03-12T14:58:06.641Z,100849.75
2023-03-12T15:00:36.704Z,100845.66
2023-03-12T15:03:12.244Z,100845.00
2023-03-12T15:05:38.759Z,100833.47
2023-03-12T15:08:05.969Z,100831.94
2023-03-12T15:10:32.560Z,100838.38
2023-03-12T15:13:05.720Z,100841.78
2023-03-12T15:15:43.958Z,100831.66
2023-03-12T15:18:18.292Z,100839.63
2023-03-12T15:20:49.320Z,100830.75
2023-03-12T15:23:21.860Z,100828.06
2023-03-12T15:26:09.430Z,100833.13
2023-03-12T15:28:42.618Z,100838.16
2023-03-12T15:31:15.852Z,100835.19
2023-03-12T15:33:45.254Z,100821.75
2023-03-12T15:36:15.038Z,100817.06
2023-03-12T15:38:52.334Z,100823.75
2023-03-12T15:41:26.503Z,100817.03
2023-03-12T15:44:01.081Z,100806.59
2023-03-12T15:46:28.675Z,100805.28
2023-03-12T15:48:59.067Z,100807.44
2023-03-12T15:51:33.818Z,100814.56
2023-03-12T15:54:02.689Z,100804.16
2023-03-12T15:56:32.360Z,100804.47
2023-03-12T15:59:04.834Z,100817.06
2023-03-12T16:01:44.911Z,100803.25
2023-03-12T16:04:18.252Z,100805.16
2023-03-12T16:06:46.582Z,100807.56
2023-03-12T16:09:18.395Z,100801.44
2023-03-12T16:11:45.066Z,100811.59
2023-03-12T16:14:28.433Z,100810.97
2023-03-12T16:16:55.018Z,100795.19
2023-03-12T16:19:29.314Z,100802.91
2023-03-12T16:21:55.927Z,100797.50
2023-03-12T16:24:22.440Z,100791.38
2023-03-12T16:26:58.721Z,100790.69
2023-03-12T16:29:35.672Z,100791.41
2023-03-12T16:32:10.419Z,100790.69
2023-03-12T16:34:37.031Z,100801.84
2023-03-12T16:37:03.507Z,100791.56
2023-03-12T16:39:30.497Z,100798.00
2023-03-12T16:41:56.894Z,100790.06
2023-03-12T16:44:31.799Z,100775.66
2023-03-12T16:46:58.253Z,100771.81
2023-03-12T16:49:25.256Z,100782.94
2023-03-12T16:51:57.832Z,100774.66
2023-03-12T16:54:24.159Z,100775.25
2023-03-12T16:56:50.510Z,100777.09
2023-03-12T16:59:25.300Z,100790.91
2023-03-12T17:01:51.851Z,100784.22
2023-03-12T17:04:20.489Z,100793.59
2023-03-12T17:06:47.004Z,100804.31
2023-03-12T17:09:17.761Z,100798.31
2023-03-12T17:11:44.947Z,100802.44
2023-03-12T17:14:23.664Z,100808.31
2023-03-12T17:16:50.680Z,100817.53
2023-03-12T17:19:17.116Z,100819.41
2023-03-12T17:21:44.744Z,100824.66
2023-03-12T17:24:12.020Z,100814.00
2023-03-12T17:26:46.046Z,100807.75
2023-03-12T17:29:12.487Z,100798.19
2023-03-12T17:31:38.904Z,100812.97
2023-03-12T17:34:05.562Z,100805.59
2023-03-12T17:36:35.925Z,100800.59
2023-03-12T17:39:02.462Z,100812.41
2023-03-12T17:41:32.689Z,100820.81
2023-03-12T17:43:59.286Z,100814.53
2023-03-12T17:46:25.765Z,100814.81
2023-03-12T17:48:52.297Z,100819.50
2023-03-12T17:51:18.877Z,100835.16
2023-03-12T17:53:53.619Z,100829.75
2023-03-12T17:56:20.129Z,100831.47
2023-03-12T17:58:47.591Z,100832.19
2023-03-12T18:01:15.553Z,100822.94
2023-03-12T18:03:44.400Z,100818.53
2023-03-12T18:06:12.980Z,100815.69
2023-03-12T18:08:43.000Z,100817.53
2023-03-12T18:11:10.565Z,100830.22
2023-03-12T18:13:38.838Z,100818.53
2023-03-12T18:16:06.532Z,100810.72
2023-03-12T18:18:33.683Z,100838.06
2023-03-12T18:21:00.114Z,100810.28
2023-03-12T18:23:26.757Z,100816.56
2023-03-12T18:25:53.479Z,100812.03
2023-03-12T18:28:19.800Z,100814.31
2023-03-12T18:30:50.591Z,100818.84
2023-03-12T18:33:17.153Z,100808.75
2023-03-12T18:35:46.602Z,100814.31
2023-03-12T18:38:14.240Z,100822.41
2023-03-12T18:40:41.954Z,100817.97
2023-03-12T18:43:08.348Z,100812.31
2023-03-12T18:45:35.015Z,100811.81
2023-03-12T18:48:02.437Z,100809.97
2023-03-12T18:50:30.247Z,100813.16
2023-03-12T18:52:58.844Z,100813.28
2023-03-12T18:55:25.256Z,100807.44
2023-03-12T18:57:54.885Z,100808.31
2023-03-12T19:00:28.773Z,100807.59
2023-03-12T19:02:55.228Z,100806.31
2023-03-12T19:05:22.354Z,100815.03
2023-03-12T19:07:54.775Z,100801.75
2023-03-12T19:10:24.010Z,100807.44
2023-03-12T19:12:53.306Z,100809.63
2023-03-12T19:15:23.587Z,100806.19
2023-03-12T19:17:50.202Z,100809.88
2023-03-12T19:20:24.018Z,100795.94
2023-03-12T19:22:50.404Z,100807.59
2023-03-12T19:25:18.025Z,100803.03
2023-03-12T19:27:44.414Z,100789.09
2023-03-12T19:30:11.416Z,100789.38
2023-03-12T19:32:43.843Z,100786.09
2023-03-12T19:35:13.139Z,100783.41
2023-03-12T19:37:40.072Z,100783.09
2023-03-12T19:40:07.228Z,100784.09
2023-03-12T19:42:40.891Z,100781.41
2023-03-12T19:45:08.063Z,100782.38
2023-03-12T19:47:35.990Z,100778.41
2023-03-12T19:50:02.410Z,100777.97
2023-03-12T19:52:29.058Z,100774.13
2023-03-12T19:55:04.833Z,100778.09
2023-03-12T19:57:40.145Z,100774.41
2023-03-12T20:00:08.099Z,100768.13
2023-03-12T20:02:34.683Z,100767.00
2023-03-12T20:05:02.317Z,100768.41
2023-03-12T20:07:28.699Z,100756.19
2023-03-12T20:09:55.168Z,100760.75
2023-03-12T20:12:21.541Z,100751.34
2023-03-12T20:14:52.135Z,100753.06
2023-03-12T20:17:18.460Z,100735.41
2023-03-12T20:19:45.034Z,100739.56
2023-03-12T20:22:11.390Z,100729.00
2023-03-12T20:24:37.826Z,100729.31
2023-03-12T20:27:04.443Z,100725.06
2023-03-12T20:29:30.982Z,100716.94
2023-03-12T20:31:57.391Z,100716.38
2023-03-12T20:34:23.900Z,100708.53
2023-03-12T20:36:50.389Z,100702.88
2023-03-12T20:39:16.836Z,100707.00
2023-03-12T20:41:43.242Z,100712.41
2023-03-12T20:44:09.594Z,100693.47
2023-03-12T20:46:47.596Z,100697.59
2023-03-12T20:49:16.433Z,100693.78
2023-03-12T20:51:42.935Z,100691.19
2023-03-12T20:54:23.918Z,100693.19
2023-03-12T20:56:57.088Z,100684.63
2023-03-12T20:59:23.832Z,100680.53
2023-03-12T21:01:50.213Z,100678.25
2023-03-12T21:04:16.603Z,100668.72
2023-03-12T21:06:45.310Z,100676.53
2023-03-12T21:09:13.532Z,100674.41
2023-03-12T21:11:39.854Z,100671.16
2023-03-12T21:14:20.895Z,100665.03
2023-03-12T21:17:02.595Z,100661.91
2023-03-12T21:19:30.084Z,100658.50
2023-03-12T21:22:02.918Z,100646.69
2023-03-12T21:24:32.592Z,100643.84
2023-03-12T21:26:59.146Z,100637.31
2023-03-12T21:29:28.261Z,100631.63
2023-03-12T21:31:54.928Z,100624.66
2023-03-12T21:34:23.960Z,100623.09
2023-03-12T21:36:54.104Z,100621.66
2023-03-12T21:39:21.190Z,100622.53
2023-03-12T21:41:49.665Z,100609.28
2023-03-12T21:44:16.817Z,100609.13
2023-03-12T21:46:44.952Z,100597.81
2023-03-12T21:49:13.263Z,100591.97
2023-03-12T21:51:39.794Z,100588.81
2023-03-12T21:54:10.986Z,100582.75
2023-03-12T21:56:37.764Z,100572.78
2023-03-12T21:59:08.920Z,100568.22
2023-03-12T22:01:35.647Z,100554.88
2023-03-12T22:04:02.207Z,100552.75
2023-03-12T22:06:29.886Z,100551.16
2023-03-12T22:08:56.252Z,100540.81
2023-03-12T22:11:25.657Z,100536.25
2023-03-12T22:13:54.625Z,100531.56
2023-03-12T22:16:28.726Z,100521.44
2023-03-12T22:19:02.554Z,100519.91
2023-03-12T22:21:30.945Z,100519.63
2023-03-12T22:23:57.529Z,100517.31
2023-03-12T22:26:24.997Z,100511.22
2023-03-12T22:28:53.747Z,100513.50
2023-03-12T22:31:24.429Z,100508.81
2023-03-12T22:33:53.776Z,100505.81
2023-03-12T22:36:24.078Z,100497.72
2023-03-12T22:38:53.075Z,100497.00
2023-03-12T22:41:22.495Z,100491.34
2023-03-12T22:43:55.712Z,100489.75
2023-03-12T22:46:25.581Z,100489.63
2023-03-12T22:48:54.776Z,100485.09
2023-03-12T22:51:21.657Z,100481.25
2023-03-12T22:53:48.032Z,100481.69
2023-03-12T22:56:16.629Z,100480.53
2023-03-12T22:58:43.054Z,100471.59
2023-03-12T23:01:12.375Z,100466.06
2023-03-12T23:03:40.883Z,100467.31
2023-03-12T23:06:15.667Z,100460.91
2023-03-12T23:08:47.121Z,100442.75
2023-03-12T23:11:17.021Z,100447.56
2023-03-12T23:13:44.884Z,100444.19
2023-03-12T23:16:19.927Z,100439.06
2023-03-12T23:18:47.496Z,100438.78
2023-03-12T23:21:22.159Z,100431.84
2023-03-12T23:23:51.537Z,100423.03
2023-03-12T23:26:27.579Z,100412.25
2023-03-12T23:28:59.802Z,100401.28
2023-03-12T23:31:28.253Z,100401.28
2023-03-12T23:33:55.593Z,100384.94
2023-03-12T23:36:24.588Z,100376.53
2023-03-12T23:38:51.313Z,100364.63
2023-03-12T23:41:26.643Z,100359.22
2023-03-12T23:43:53.327Z,100353.41
2023-03-12T23:46:23.273Z,100334.97
2023-03-12T23:48:50.695Z,100332.59
2023-03-12T23:51:31.254Z,100322.63
2023-03-12T23:54:03.000Z,100306.31
2023-03-12T23:56:35.130Z,100310.84
2023-03-12T23:59:02.328Z,100306.16
